sensor_id;sensor_type;location;lat;lon;timestamp;temperature;humidity
29207;DHT22;16247;50.840;4.382;2023-09-07T00:42:47;22.60;99.90
29207;DHT22;16247;50.840;4.382;2023-09-07T02:27:58;21.60;99.90
29207;DHT22;16247;50.840;4.382;2023-09-07T02:33:15;21.80;99.90
29207;DHT22;16247;50.840;4.382;2023-09-07T02:46:29;21.60;99.90
29207;DHT22;16247;50.840;4.382;2023-09-07T02:49:26;21.60;99.90
29207;DHT22;16247;50.840;4.382;2023-09-07T02:55:22;21.60;99.90
29207;DHT22;16247;50.840;4.382;2023-09-07T03:07:44;21.50;99.90
29207;DHT22;16247;50.840;4.382;2023-09-07T03:10:35;21.20;99.90
29207;DHT22;16247;50.840;4.382;2023-09-07T04:11:03;21.00;99.90
29207;DHT22;16247;50.840;4.382;2023-09-07T04:13:47;21.00;99.90
29207;DHT22;16247;50.840;4.382;2023-09-07T04:16:14;20.90;99.90
29207;DHT22;16247;50.840;4.382;2023-09-07T04:22:20;20.90;99.90
29207;DHT22;16247;50.840;4.382;2023-09-07T04:25:12;20.90;99.90
29207;DHT22;16247;50.840;4.382;2023-09-07T04:27:53;20.90;99.90
29207;DHT22;16247;50.840;4.382;2023-09-07T04:30:43;21.00;99.90
29207;DHT22;16247;50.840;4.382;2023-09-07T04:33:48;20.80;99.90
29207;DHT22;16247;50.840;4.382;2023-09-07T04:42:16;20.70;99.90
29207;DHT22;16247;50.840;4.382;2023-09-07T04:48:30;20.70;99.90
29207;DHT22;16247;50.840;4.382;2023-09-07T04:51:16;20.60;99.90
29207;DHT22;16247;50.840;4.382;2023-09-07T04:53:42;20.60;99.90
29207;DHT22;16247;50.840;4.382;2023-09-07T04:56:08;20.50;99.90
29207;DHT22;16247;50.840;4.382;2023-09-07T04:58:34;20.40;99.90
29207;DHT22;16247;50.840;4.382;2023-09-07T05:01:08;20.20;99.90
29207;DHT22;16247;50.840;4.382;2023-09-07T05:03:34;20.40;99.90
29207;DHT22;16247;50.840;4.382;2023-09-07T05:06:01;20.50;99.90
29207;DHT22;16247;50.840;4.382;2023-09-07T05:08:28;20.70;99.90
29207;DHT22;16247;50.840;4.382;2023-09-07T05:10:58;20.70;99.90
29207;DHT22;16247;50.840;4.382;2023-09-07T05:13:24;20.70;99.90
29207;DHT22;16247;50.840;4.382;2023-09-07T05:15:51;20.50;99.90
29207;DHT22;16247;50.840;4.382;2023-09-07T05:18:17;20.60;99.90
29207;DHT22;16247;50.840;4.382;2023-09-07T05:20:44;20.40;99.90
29207;DHT22;16247;50.840;4.382;2023-09-07T05:23:18;20.20;99.90
29207;DHT22;16247;50.840;4.382;2023-09-07T05:25:48;20.30;99.90
29207;DHT22;16247;50.840;4.382;2023-09-07T05:28:15;20.60;99.90
29207;DHT22;16247;50.840;4.382;2023-09-07T05:30:44;20.80;99.90
29207;DHT22;16247;50.840;4.382;2023-09-07T05:33:10;20.60;99.90
29207;DHT22;16247;50.840;4.382;2023-09-07T05:35:36;20.50;99.90
29207;DHT22;16247;50.840;4.382;2023-09-07T05:38:04;20.50;99.90
29207;DHT22;16247;50.840;4.382;2023-09-07T05:40:30;20.70;99.90
29207;DHT22;16247;50.840;4.382;2023-09-07T05:42:58;20.70;99.90
29207;DHT22;16247;50.840;4.382;2023-09-07T05:45:25;20.60;99.90
29207;DHT22;16247;50.840;4.382;2023-09-07T05:47:51;20.80;99.90
29207;DHT22;16247;50.840;4.382;2023-09-07T05:50:17;20.70;99.90
29207;DHT22;16247;50.840;4.382;2023-09-07T05:52:43;20.60;99.90
29207;DHT22;16247;50.840;4.382;2023-09-07T05:55:09;20.70;99.90
29207;DHT22;16247;50.840;4.382;2023-09-07T05:57:35;20.90;99.90
29207;DHT22;16247;50.840;4.382;2023-09-07T06:00:02;21.00;99.90
29207;DHT22;16247;50.840;4.382;2023-09-07T06:02:27;21.20;99.90
29207;DHT22;16247;50.840;4.382;2023-09-07T06:04:53;21.10;99.90
29207;DHT22;16247;50.840;4.382;2023-09-07T06:07:19;20.90;99.90
29207;DHT22;16247;50.840;4.382;2023-09-07T06:09:44;20.60;99.90
29207;DHT22;16247;50.840;4.382;2023-09-07T06:12:10;20.50;99.90
29207;DHT22;16247;50.840;4.382;2023-09-07T06:14:36;20.40;99.90
29207;DHT22;16247;50.840;4.382;2023-09-07T06:17:01;20.30;99.90
29207;DHT22;16247;50.840;4.382;2023-09-07T06:19:27;20.60;99.90
29207;DHT22;16247;50.840;4.382;2023-09-07T06:21:53;20.60;99.90
29207;DHT22;16247;50.840;4.382;2023-09-07T06:24:19;20.50;99.90
29207;DHT22;16247;50.840;4.382;2023-09-07T06:26:45;20.60;99.90
29207;DHT22;16247;50.840;4.382;2023-09-07T06:29:11;20.50;99.90
29207;DHT22;16247;50.840;4.382;2023-09-07T06:31:37;20.50;99.90
29207;DHT22;16247;50.840;4.382;2023-09-07T06:34:02;20.70;99.90
29207;DHT22;16247;50.840;4.382;2023-09-07T06:36:30;20.90;99.90
29207;DHT22;16247;50.840;4.382;2023-09-07T06:38:56;21.10;99.90
29207;DHT22;16247;50.840;4.382;2023-09-07T06:41:21;21.40;99.90
29207;DHT22;16247;50.840;4.382;2023-09-07T06:43:47;21.40;99.90
29207;DHT22;16247;50.840;4.382;2023-09-07T06:46:13;21.60;99.90
29207;DHT22;16247;50.840;4.382;2023-09-07T06:48:38;21.70;99.90
29207;DHT22;16247;50.840;4.382;2023-09-07T06:51:05;21.80;99.90
29207;DHT22;16247;50.840;4.382;2023-09-07T06:53:31;21.80;99.90
29207;DHT22;16247;50.840;4.382;2023-09-07T06:56:02;22.10;99.90
29207;DHT22;16247;50.840;4.382;2023-09-07T06:58:28;22.20;99.90
29207;DHT22;16247;50.840;4.382;2023-09-07T07:00:58;22.30;99.90
29207;DHT22;16247;50.840;4.382;2023-09-07T07:03:28;22.30;99.90
29207;DHT22;16247;50.840;4.382;2023-09-07T07:05:55;22.20;99.90
29207;DHT22;16247;50.840;4.382;2023-09-07T07:08:21;22.10;99.90
29207;DHT22;16247;50.840;4.382;2023-09-07T07:10:46;22.10;99.90
29207;DHT22;16247;50.840;4.382;2023-09-07T07:13:12;22.00;99.90
29207;DHT22;16247;50.840;4.382;2023-09-07T07:15:38;22.20;99.90
29207;DHT22;16247;50.840;4.382;2023-09-07T07:18:04;22.60;99.90
29207;DHT22;16247;50.840;4.382;2023-09-07T07:20:41;22.70;99.90
29207;DHT22;16247;50.840;4.382;2023-09-07T07:23:07;22.70;99.90
29207;DHT22;16247;50.840;4.382;2023-09-07T07:25:33;22.70;99.90
29207;DHT22;16247;50.840;4.382;2023-09-07T07:28:00;22.70;99.90
29207;DHT22;16247;50.840;4.382;2023-09-07T07:30:28;22.80;99.90
29207;DHT22;16247;50.840;4.382;2023-09-07T07:32:57;22.80;99.90
29207;DHT22;16247;50.840;4.382;2023-09-07T07:35:23;22.90;99.90
29207;DHT22;16247;50.840;4.382;2023-09-07T07:37:50;22.90;99.90
29207;DHT22;16247;50.840;4.382;2023-09-07T07:40:16;23.20;99.90
29207;DHT22;16247;50.840;4.382;2023-09-07T07:42:43;23.40;99.90
29207;DHT22;16247;50.840;4.382;2023-09-07T07:45:09;23.60;99.90
29207;DHT22;16247;50.840;4.382;2023-09-07T07:47:35;23.70;99.90
29207;DHT22;16247;50.840;4.382;2023-09-07T07:50:00;23.80;99.90
29207;DHT22;16247;50.840;4.382;2023-09-07T07:52:26;23.90;99.90
29207;DHT22;16247;50.840;4.382;2023-09-07T07:54:53;24.10;99.90
29207;DHT22;16247;50.840;4.382;2023-09-07T07:57:18;24.10;99.90
29207;DHT22;16247;50.840;4.382;2023-09-07T07:59:44;24.20;99.90
29207;DHT22;16247;50.840;4.382;2023-09-07T08:02:10;24.20;99.90
29207;DHT22;16247;50.840;4.382;2023-09-07T08:04:35;24.30;99.90
29207;DHT22;16247;50.840;4.382;2023-09-07T08:07:01;24.20;99.90
29207;DHT22;16247;50.840;4.382;2023-09-07T08:09:32;24.30;99.90
29207;DHT22;16247;50.840;4.382;2023-09-07T08:11:58;24.20;99.90
29207;DHT22;16247;50.840;4.382;2023-09-07T08:14:25;24.30;99.90
29207;DHT22;16247;50.840;4.382;2023-09-07T08:16:53;24.30;99.90
29207;DHT22;16247;50.840;4.382;2023-09-07T08:19:19;24.30;99.90
29207;DHT22;16247;50.840;4.382;2023-09-07T08:21:45;24.30;99.90
29207;DHT22;16247;50.840;4.382;2023-09-07T08:24:11;24.60;99.90
29207;DHT22;16247;50.840;4.382;2023-09-07T08:26:37;24.80;99.90
29207;DHT22;16247;50.840;4.382;2023-09-07T08:29:03;24.80;99.90
29207;DHT22;16247;50.840;4.382;2023-09-07T08:31:35;24.70;99.90
29207;DHT22;16247;50.840;4.382;2023-09-07T08:34:05;24.80;99.90
29207;DHT22;16247;50.840;4.382;2023-09-07T08:37:00;24.80;99.90
29207;DHT22;16247;50.840;4.382;2023-09-07T08:39:55;24.90;99.90
29207;DHT22;16247;50.840;4.382;2023-09-07T08:42:23;25.00;99.90
29207;DHT22;16247;50.840;4.382;2023-09-07T08:44:51;25.20;99.90
29207;DHT22;16247;50.840;4.382;2023-09-07T08:47:38;25.40;99.90
29207;DHT22;16247;50.840;4.382;2023-09-07T08:50:09;25.40;99.90
29207;DHT22;16247;50.840;4.382;2023-09-07T08:52:40;25.50;99.90
29207;DHT22;16247;50.840;4.382;2023-09-07T08:55:32;25.70;99.90
29207;DHT22;16247;50.840;4.382;2023-09-07T08:58:06;25.90;99.90
29207;DHT22;16247;50.840;4.382;2023-09-07T09:00:44;25.90;99.90
29207;DHT22;16247;50.840;4.382;2023-09-07T09:03:19;26.10;99.90
29207;DHT22;16247;50.840;4.382;2023-09-07T09:06:17;26.10;99.90
29207;DHT22;16247;50.840;4.382;2023-09-07T09:08:55;26.40;99.90
29207;DHT22;16247;50.840;4.382;2023-09-07T09:11:48;26.40;99.90
29207;DHT22;16247;50.840;4.382;2023-09-07T09:14:36;26.70;99.90
29207;DHT22;16247;50.840;4.382;2023-09-07T09:17:18;26.60;99.90
29207;DHT22;16247;50.840;4.382;2023-09-07T09:19:53;26.80;99.90
29207;DHT22;16247;50.840;4.382;2023-09-07T09:22:55;26.80;99.90
29207;DHT22;16247;50.840;4.382;2023-09-07T09:28:22;27.00;99.90
29207;DHT22;16247;50.840;4.382;2023-09-07T09:31:02;27.00;99.90
29207;DHT22;16247;50.840;4.382;2023-09-07T09:33:34;27.10;99.90
29207;DHT22;16247;50.840;4.382;2023-09-07T09:36:06;27.20;99.90
29207;DHT22;16247;50.840;4.382;2023-09-07T09:38:36;27.10;99.90
29207;DHT22;16247;50.840;4.382;2023-09-07T09:41:27;27.00;99.90
29207;DHT22;16247;50.840;4.382;2023-09-07T09:43:58;27.00;99.90
29207;DHT22;16247;50.840;4.382;2023-09-07T09:46:31;27.00;99.90
29207;DHT22;16247;50.840;4.382;2023-09-07T09:49:25;27.30;99.90
29207;DHT22;16247;50.840;4.382;2023-09-07T09:52:00;27.30;99.90
29207;DHT22;16247;50.840;4.382;2023-09-07T09:54:39;27.30;99.90
29207;DHT22;16247;50.840;4.382;2023-09-07T09:57:17;27.40;99.90
29207;DHT22;16247;50.840;4.382;2023-09-07T10:00:02;27.30;99.90
29207;DHT22;16247;50.840;4.382;2023-09-07T10:03:26;27.70;99.90
29207;DHT22;16247;50.840;4.382;2023-09-07T10:06:12;27.70;99.90
29207;DHT22;16247;50.840;4.382;2023-09-07T10:09:05;27.70;99.90
29207;DHT22;16247;50.840;4.382;2023-09-07T10:11:38;27.80;99.90
29207;DHT22;16247;50.840;4.382;2023-09-07T10:14:08;27.70;99.90
29207;DHT22;16247;50.840;4.382;2023-09-07T10:16:44;27.40;99.90
29207;DHT22;16247;50.840;4.382;2023-09-07T10:19:34;27.70;99.90
29207;DHT22;16247;50.840;4.382;2023-09-07T10:22:37;27.90;99.90
29207;DHT22;16247;50.840;4.382;2023-09-07T10:25:23;28.10;99.90
29207;DHT22;16247;50.840;4.382;2023-09-07T10:28:04;28.20;99.90
29207;DHT22;16247;50.840;4.382;2023-09-07T10:30:37;28.10;99.90
29207;DHT22;16247;50.840;4.382;2023-09-07T10:33:27;28.30;99.90
29207;DHT22;16247;50.840;4.382;2023-09-07T10:36:24;28.10;99.90
29207;DHT22;16247;50.840;4.382;2023-09-07T10:44:38;28.50;99.90
29207;DHT22;16247;50.840;4.382;2023-09-07T10:51:40;28.80;99.90
29207;DHT22;16247;50.840;4.382;2023-09-07T10:59:22;28.70;99.90
29207;DHT22;16247;50.840;4.382;2023-09-07T11:01:49;28.80;99.90
29207;DHT22;16247;50.840;4.382;2023-09-07T11:04:18;28.60;99.90
29207;DHT22;16247;50.840;4.382;2023-09-07T11:06:47;28.90;99.90
29207;DHT22;16247;50.840;4.382;2023-09-07T11:09:20;29.00;99.90
29207;DHT22;16247;50.840;4.382;2023-09-07T11:11:49;29.10;99.90
29207;DHT22;16247;50.840;4.382;2023-09-07T11:14:17;29.20;99.90
29207;DHT22;16247;50.840;4.382;2023-09-07T11:16:47;29.30;99.90
29207;DHT22;16247;50.840;4.382;2023-09-07T11:19:14;29.40;99.90
29207;DHT22;16247;50.840;4.382;2023-09-07T11:21:52;29.40;99.90
29207;DHT22;16247;50.840;4.382;2023-09-07T11:24:19;29.30;99.90
29207;DHT22;16247;50.840;4.382;2023-09-07T11:26:46;29.50;99.90
29207;DHT22;16247;50.840;4.382;2023-09-07T11:29:16;29.60;99.90
29207;DHT22;16247;50.840;4.382;2023-09-07T11:31:46;29.60;99.90
29207;DHT22;16247;50.840;4.382;2023-09-07T11:34:14;29.70;99.90
29207;DHT22;16247;50.840;4.382;2023-09-07T11:36:40;29.70;99.90
29207;DHT22;16247;50.840;4.382;2023-09-07T11:39:10;29.60;99.90
29207;DHT22;16247;50.840;4.382;2023-09-07T11:41:42;29.60;99.90
29207;DHT22;16247;50.840;4.382;2023-09-07T11:44:12;29.70;99.90
29207;DHT22;16247;50.840;4.382;2023-09-07T11:46:40;29.70;99.90
29207;DHT22;16247;50.840;4.382;2023-09-07T11:49:14;29.70;99.90
29207;DHT22;16247;50.840;4.382;2023-09-07T11:51:48;29.70;99.90
29207;DHT22;16247;50.840;4.382;2023-09-07T11:54:18;30.00;99.90
29207;DHT22;16247;50.840;4.382;2023-09-07T11:56:44;30.00;99.90
29207;DHT22;16247;50.840;4.382;2023-09-07T11:59:11;30.00;99.90
29207;DHT22;16247;50.840;4.382;2023-09-07T12:01:45;30.00;99.90
29207;DHT22;16247;50.840;4.382;2023-09-07T12:04:12;30.20;99.90
29207;DHT22;16247;50.840;4.382;2023-09-07T12:06:39;30.30;99.90
29207;DHT22;16247;50.840;4.382;2023-09-07T12:09:07;30.40;99.90
29207;DHT22;16247;50.840;4.382;2023-09-07T12:11:41;30.40;99.90
29207;DHT22;16247;50.840;4.382;2023-09-07T12:14:07;30.50;99.90
29207;DHT22;16247;50.840;4.382;2023-09-07T12:16:33;30.60;99.90
29207;DHT22;16247;50.840;4.382;2023-09-07T12:19:03;30.60;99.90
29207;DHT22;16247;50.840;4.382;2023-09-07T12:21:28;30.70;99.90
29207;DHT22;16247;50.840;4.382;2023-09-07T12:23:54;30.60;99.90
29207;DHT22;16247;50.840;4.382;2023-09-07T12:26:21;30.70;99.90
29207;DHT22;16247;50.840;4.382;2023-09-07T12:28:48;30.60;99.90
29207;DHT22;16247;50.840;4.382;2023-09-07T12:31:15;30.80;99.90
29207;DHT22;16247;50.840;4.382;2023-09-07T12:33:42;30.90;99.90
29207;DHT22;16247;50.840;4.382;2023-09-07T12:36:08;30.90;99.90
29207;DHT22;16247;50.840;4.382;2023-09-07T12:38:44;30.70;99.90
29207;DHT22;16247;50.840;4.382;2023-09-07T12:41:14;30.80;99.90
29207;DHT22;16247;50.840;4.382;2023-09-07T12:43:48;31.00;99.90
29207;DHT22;16247;50.840;4.382;2023-09-07T12:46:22;31.20;99.90
29207;DHT22;16247;50.840;4.382;2023-09-07T12:48:51;31.20;99.90
29207;DHT22;16247;50.840;4.382;2023-09-07T12:51:21;31.20;99.90
29207;DHT22;16247;50.840;4.382;2023-09-07T12:53:49;31.10;99.90
29207;DHT22;16247;50.840;4.382;2023-09-07T12:56:18;31.10;99.90
29207;DHT22;16247;50.840;4.382;2023-09-07T12:58:45;31.10;99.90
29207;DHT22;16247;50.840;4.382;2023-09-07T13:01:11;31.10;99.90
29207;DHT22;16247;50.840;4.382;2023-09-07T13:03:45;30.90;99.90
29207;DHT22;16247;50.840;4.382;2023-09-07T13:06:14;31.00;99.90
29207;DHT22;16247;50.840;4.382;2023-09-07T13:08:48;31.20;99.90
29207;DHT22;16247;50.840;4.382;2023-09-07T13:11:15;31.20;99.90
29207;DHT22;16247;50.840;4.382;2023-09-07T13:13:43;31.20;99.90
29207;DHT22;16247;50.840;4.382;2023-09-07T13:16:19;31.30;99.90
29207;DHT22;16247;50.840;4.382;2023-09-07T13:18:53;31.10;99.90
29207;DHT22;16247;50.840;4.382;2023-09-07T13:21:23;31.20;99.90
29207;DHT22;16247;50.840;4.382;2023-09-07T13:23:49;31.30;99.90
29207;DHT22;16247;50.840;4.382;2023-09-07T13:26:20;31.30;99.90
29207;DHT22;16247;50.840;4.382;2023-09-07T13:28:48;31.50;99.90
29207;DHT22;16247;50.840;4.382;2023-09-07T13:31:20;31.50;99.90
29207;DHT22;16247;50.840;4.382;2023-09-07T13:33:56;31.60;99.90
29207;DHT22;16247;50.840;4.382;2023-09-07T13:36:25;31.40;99.90
29207;DHT22;16247;50.840;4.382;2023-09-07T13:38:54;31.50;99.90
29207;DHT22;16247;50.840;4.382;2023-09-07T13:41:23;31.60;99.90
29207;DHT22;16247;50.840;4.382;2023-09-07T13:43:49;31.60;99.90
29207;DHT22;16247;50.840;4.382;2023-09-07T13:46:17;31.50;99.90
29207;DHT22;16247;50.840;4.382;2023-09-07T13:48:56;31.60;99.90
29207;DHT22;16247;50.840;4.382;2023-09-07T13:51:24;31.60;99.90
29207;DHT22;16247;50.840;4.382;2023-09-07T13:53:54;31.50;99.90
29207;DHT22;16247;50.840;4.382;2023-09-07T13:56:22;31.70;99.90
29207;DHT22;16247;50.840;4.382;2023-09-07T13:58:50;31.80;99.90
29207;DHT22;16247;50.840;4.382;2023-09-07T14:01:21;31.50;99.90
29207;DHT22;16247;50.840;4.382;2023-09-07T14:03:48;31.80;99.90
29207;DHT22;16247;50.840;4.382;2023-09-07T14:06:15;31.70;99.90
29207;DHT22;16247;50.840;4.382;2023-09-07T14:08:41;31.80;99.90
29207;DHT22;16247;50.840;4.382;2023-09-07T14:11:17;31.70;99.90
29207;DHT22;16247;50.840;4.382;2023-09-07T14:13:50;31.80;99.90
29207;DHT22;16247;50.840;4.382;2023-09-07T14:16:22;31.90;99.90
29207;DHT22;16247;50.840;4.382;2023-09-07T14:18:48;31.90;99.90
29207;DHT22;16247;50.840;4.382;2023-09-07T14:21:32;32.10;99.90
29207;DHT22;16247;50.840;4.382;2023-09-07T14:30:15;31.90;99.90
29207;DHT22;16247;50.840;4.382;2023-09-07T14:38:22;32.00;99.90
29207;DHT22;16247;50.840;4.382;2023-09-07T14:51:42;32.10;99.90
29207;DHT22;16247;50.840;4.382;2023-09-07T14:55:06;32.30;99.90
29207;DHT22;16247;50.840;4.382;2023-09-07T14:57:40;32.30;99.90
29207;DHT22;16247;50.840;4.382;2023-09-07T15:00:11;32.30;99.90
29207;DHT22;16247;50.840;4.382;2023-09-07T15:39:41;32.20;99.90
29207;DHT22;16247;50.840;4.382;2023-09-07T15:44:52;32.30;99.90
29207;DHT22;16247;50.840;4.382;2023-09-07T15:57:55;32.30;99.90
29207;DHT22;16247;50.840;4.382;2023-09-07T16:10:47;32.30;99.90
29207;DHT22;16247;50.840;4.382;2023-09-07T16:13:14;32.20;99.90
29207;DHT22;16247;50.840;4.382;2023-09-07T16:15:42;32.20;99.90
29207;DHT22;16247;50.840;4.382;2023-09-07T16:18:09;32.20;99.90
29207;DHT22;16247;50.840;4.382;2023-09-07T16:25:58;32.00;99.90
29207;DHT22;16247;50.840;4.382;2023-09-07T16:30:59;32.10;99.90
29207;DHT22;16247;50.840;4.382;2023-09-07T16:36:01;32.00;99.90
29207;DHT22;16247;50.840;4.382;2023-09-07T16:43:41;31.70;99.90
29207;DHT22;16247;50.840;4.382;2023-09-07T16:48:42;31.80;99.90
29207;DHT22;16247;50.840;4.382;2023-09-07T16:51:09;31.70;99.90
29207;DHT22;16247;50.840;4.382;2023-09-07T16:53:36;31.70;99.90
29207;DHT22;16247;50.840;4.382;2023-09-07T16:56:03;31.60;99.90
29207;DHT22;16247;50.840;4.382;2023-09-07T16:58:33;31.60;99.90
29207;DHT22;16247;50.840;4.382;2023-09-07T17:01:07;31.50;99.90
29207;DHT22;16247;50.840;4.382;2023-09-07T17:03:37;31.40;99.90
29207;DHT22;16247;50.840;4.382;2023-09-07T17:08:50;31.40;99.90
29207;DHT22;16247;50.840;4.382;2023-09-07T17:19:46;31.20;99.90
29207;DHT22;16247;50.840;4.382;2023-09-07T17:25:00;31.10;99.90
29207;DHT22;16247;50.840;4.382;2023-09-07T17:27:26;31.10;99.90
29207;DHT22;16247;50.840;4.382;2023-09-07T17:29:55;31.00;99.90
29207;DHT22;16247;50.840;4.382;2023-09-07T17:32:23;30.90;99.90
29207;DHT22;16247;50.840;4.382;2023-09-07T17:34:52;31.00;99.90
29207;DHT22;16247;50.840;4.382;2023-09-07T17:37:19;30.80;99.90
29207;DHT22;16247;50.840;4.382;2023-09-07T17:39:53;30.80;99.90
29207;DHT22;16247;50.840;4.382;2023-09-07T17:42:23;30.80;99.90
29207;DHT22;16247;50.840;4.382;2023-09-07T17:49:59;30.50;99.90
29207;DHT22;16247;50.840;4.382;2023-09-07T17:52:29;30.50;99.90
29207;DHT22;16247;50.840;4.382;2023-09-07T18:00:35;30.20;99.90
29207;DHT22;16247;50.840;4.382;2023-09-07T18:03:02;30.40;99.90
29207;DHT22;16247;50.840;4.382;2023-09-07T18:05:28;30.10;99.90
29207;DHT22;16247;50.840;4.382;2023-09-07T18:07:54;30.00;99.90
29207;DHT22;16247;50.840;4.382;2023-09-07T18:10:20;30.00;99.90
29207;DHT22;16247;50.840;4.382;2023-09-07T18:12:49;29.90;99.90
29207;DHT22;16247;50.840;4.382;2023-09-07T18:15:20;29.90;99.90
29207;DHT22;16247;50.840;4.382;2023-09-07T18:18:17;29.80;99.90
29207;DHT22;16247;50.840;4.382;2023-09-07T18:20:53;29.70;99.90
29207;DHT22;16247;50.840;4.382;2023-09-07T18:23:21;29.80;99.90
29207;DHT22;16247;50.840;4.382;2023-09-07T18:33:36;29.30;99.90
29207;DHT22;16247;50.840;4.382;2023-09-07T18:41:17;29.00;99.90
29207;DHT22;16247;50.840;4.382;2023-09-07T21:08:44;25.90;99.90
29207;DHT22;16247;50.840;4.382;2023-09-07T21:11:10;25.80;99.90
29207;DHT22;16247;50.840;4.382;2023-09-07T21:13:47;25.90;99.90
29207;DHT22;16247;50.840;4.382;2023-09-07T21:19:08;25.70;99.90
29207;DHT22;16247;50.840;4.382;2023-09-07T21:21:41;25.80;99.90
29207;DHT22;16247;50.840;4.382;2023-09-07T21:24:07;25.70;99.90
29207;DHT22;16247;50.840;4.382;2023-09-07T21:32:00;25.50;99.90
29207;DHT22;16247;50.840;4.382;2023-09-07T21:39:38;25.50;99.90
29207;DHT22;16247;50.840;4.382;2023-09-07T21:45:21;25.50;99.90
29207;DHT22;16247;50.840;4.382;2023-09-07T21:48:35;25.30;99.90
29207;DHT22;16247;50.840;4.382;2023-09-07T23:30:28;24.10;99.90
29207;DHT22;16247;50.840;4.382;2023-09-07T23:32:54;24.10;99.90
29207;DHT22;16247;50.840;4.382;2023-09-07T23:35:31;23.90;99.90
29207;DHT22;16247;50.840;4.382;2023-09-07T23:38:23;23.90;99.90
29207;DHT22;16247;50.840;4.382;2023-09-07T23:41:01;23.90;99.90
29207;DHT22;16247;50.840;4.382;2023-09-07T23:44:13;23.90;99.90
29207;DHT22;16247;50.840;4.382;2023-09-07T23:47:07;23.90;99.90
29207;DHT22;16247;50.840;4.382;2023-09-07T23:49:40;23.90;99.90
29207;DHT22;16247;50.840;4.382;2023-09-07T23:52:12;23.80;99.90
29207;DHT22;16247;50.840;4.382;2023-09-07T23:54:40;23.90;99.90
